sensor_id;sensor_type;location;lat;lon;timestamp;P1;durP1;ratioP1;P2;durP2;ratioP2
45650;SDS011;31365;48.858;8.530;2022-12-05T00:02:11;8.97;;;7.10;;
45650;SDS011;31365;48.858;8.530;2022-12-05T00:04:39;8.13;;;7.13;;
45650;SDS011;31365;48.858;8.530;2022-12-05T00:07:09;7.27;;;6.17;;
45650;SDS011;31365;48.858;8.530;2022-12-05T00:09:38;8.30;;;6.97;;
45650;SDS011;31365;48.858;8.530;2022-12-05T00:12:07;8.00;;;6.80;;
45650;SDS011;31365;48.858;8.530;2022-12-05T00:14:36;7.67;;;6.87;;
45650;SDS011;31365;48.858;8.530;2022-12-05T00:17:04;8.80;;;7.23;;
45650;SDS011;31365;48.858;8.530;2022-12-05T00:19:33;9.73;;;7.77;;
45650;SDS011;31365;48.858;8.530;2022-12-05T00:22:01;8.67;;;7.30;;
45650;SDS011;31365;48.858;8.530;2022-12-05T00:24:30;10.30;;;8.30;;
45650;SDS011;31365;48.858;8.530;2022-12-05T00:26:59;9.37;;;7.90;;
45650;SDS011;31365;48.858;8.530;2022-12-05T00:29:27;10.40;;;8.27;;
45650;SDS011;31365;48.858;8.530;2022-12-05T00:31:57;10.27;;;8.73;;
45650;SDS011;31365;48.858;8.530;2022-12-05T00:34:25;11.43;;;8.37;;
45650;SDS011;31365;48.858;8.530;2022-12-05T00:36:54;9.73;;;8.50;;
45650;SDS011;31365;48.858;8.530;2022-12-05T00:39:22;8.90;;;7.83;;
45650;SDS011;31365;48.858;8.530;2022-12-05T00:45:14;10.83;;;8.37;;
45650;SDS011;31365;48.858;8.530;2022-12-05T00:47:44;14.50;;;10.50;;
45650;SDS011;31365;48.858;8.530;2022-12-05T00:50:13;12.70;;;9.13;;
45650;SDS011;31365;48.858;8.530;2022-12-05T00:52:41;9.60;;;8.60;;
45650;SDS011;31365;48.858;8.530;2022-12-05T00:55:09;9.23;;;7.97;;
45650;SDS011;31365;48.858;8.530;2022-12-05T00:57:37;8.73;;;7.83;;
45650;SDS011;31365;48.858;8.530;2022-12-05T01:00:06;9.40;;;7.77;;
45650;SDS011;31365;48.858;8.530;2022-12-05T01:02:35;9.90;;;8.40;;
45650;SDS011;31365;48.858;8.530;2022-12-05T01:05:06;9.37;;;7.57;;
45650;SDS011;31365;48.858;8.530;2022-12-05T01:07:35;8.00;;;7.20;;
45650;SDS011;31365;48.858;8.530;2022-12-05T01:10:04;8.37;;;7.47;;
45650;SDS011;31365;48.858;8.530;2022-12-05T01:12:34;9.03;;;7.87;;
45650;SDS011;31365;48.858;8.530;2022-12-05T01:15:02;10.33;;;7.60;;
45650;SDS011;31365;48.858;8.530;2022-12-05T01:17:32;9.67;;;7.77;;
45650;SDS011;31365;48.858;8.530;2022-12-05T01:20:01;8.33;;;7.43;;
45650;SDS011;31365;48.858;8.530;2022-12-05T01:22:32;9.57;;;8.57;;
45650;SDS011;31365;48.858;8.530;2022-12-05T01:25:00;9.20;;;7.83;;
45650;SDS011;31365;48.858;8.530;2022-12-05T01:27:28;9.27;;;8.27;;
45650;SDS011;31365;48.858;8.530;2022-12-05T01:29:57;9.47;;;8.37;;
45650;SDS011;31365;48.858;8.530;2022-12-05T01:32:25;8.93;;;7.70;;
45650;SDS011;31365;48.858;8.530;2022-12-05T01:34:54;8.60;;;7.23;;
45650;SDS011;31365;48.858;8.530;2022-12-05T01:37:22;9.90;;;7.53;;
45650;SDS011;31365;48.858;8.530;2022-12-05T01:39:52;10.63;;;8.47;;
45650;SDS011;31365;48.858;8.530;2022-12-05T01:42:20;8.13;;;7.07;;
45650;SDS011;31365;48.858;8.530;2022-12-05T01:44:59;8.77;;;7.40;;
45650;SDS011;31365;48.858;8.530;2022-12-05T01:47:34;11.33;;;8.33;;
45650;SDS011;31365;48.858;8.530;2022-12-05T01:50:04;9.93;;;7.93;;
45650;SDS011;31365;48.858;8.530;2022-12-05T01:52:34;8.07;;;7.27;;
45650;SDS011;31365;48.858;8.530;2022-12-05T01:55:07;9.73;;;8.10;;
45650;SDS011;31365;48.858;8.530;2022-12-05T01:57:40;9.90;;;7.80;;
45650;SDS011;31365;48.858;8.530;2022-12-05T02:00:10;8.07;;;7.00;;
45650;SDS011;31365;48.858;8.530;2022-12-05T02:02:43;9.70;;;7.97;;
45650;SDS011;31365;48.858;8.530;2022-12-05T02:05:18;9.07;;;7.93;;
45650;SDS011;31365;48.858;8.530;2022-12-05T02:07:49;10.67;;;8.37;;
45650;SDS011;31365;48.858;8.530;2022-12-05T02:10:20;9.37;;;8.00;;
45650;SDS011;31365;48.858;8.530;2022-12-05T02:12:49;11.97;;;9.57;;
45650;SDS011;31365;48.858;8.530;2022-12-05T02:15:27;10.43;;;8.77;;
45650;SDS011;31365;48.858;8.530;2022-12-05T02:21:09;9.23;;;8.20;;
45650;SDS011;31365;48.858;8.530;2022-12-05T02:24:16;10.20;;;8.13;;
45650;SDS011;31365;48.858;8.530;2022-12-05T02:27:25;18.10;;;12.67;;
45650;SDS011;31365;48.858;8.530;2022-12-05T02:30:14;14.63;;;10.77;;
45650;SDS011;31365;48.858;8.530;2022-12-05T02:32:46;10.50;;;8.73;;
45650;SDS011;31365;48.858;8.530;2022-12-05T02:35:36;15.50;;;10.97;;
45650;SDS011;31365;48.858;8.530;2022-12-05T02:38:16;11.73;;;9.43;;
45650;SDS011;31365;48.858;8.530;2022-12-05T02:41:02;13.43;;;9.57;;
45650;SDS011;31365;48.858;8.530;2022-12-05T02:43:43;10.43;;;9.07;;
45650;SDS011;31365;48.858;8.530;2022-12-05T02:46:24;11.53;;;9.03;;
45650;SDS011;31365;48.858;8.530;2022-12-05T02:48:57;12.53;;;9.37;;
45650;SDS011;31365;48.858;8.530;2022-12-05T02:51:30;9.80;;;8.60;;
45650;SDS011;31365;48.858;8.530;2022-12-05T02:54:06;8.83;;;7.43;;
45650;SDS011;31365;48.858;8.530;2022-12-05T02:56:39;8.63;;;7.73;;
45650;SDS011;31365;48.858;8.530;2022-12-05T02:59:11;9.13;;;7.37;;
45650;SDS011;31365;48.858;8.530;2022-12-05T03:01:49;7.73;;;6.93;;
45650;SDS011;31365;48.858;8.530;2022-12-05T03:04:21;8.53;;;7.50;;
45650;SDS011;31365;48.858;8.530;2022-12-05T03:06:52;8.73;;;7.00;;
45650;SDS011;31365;48.858;8.530;2022-12-05T03:09:27;9.20;;;7.70;;
45650;SDS011;31365;48.858;8.530;2022-12-05T03:12:05;7.37;;;6.57;;
45650;SDS011;31365;48.858;8.530;2022-12-05T03:14:40;9.73;;;7.70;;
45650;SDS011;31365;48.858;8.530;2022-12-05T03:17:21;7.47;;;6.67;;
45650;SDS011;31365;48.858;8.530;2022-12-05T03:19:56;8.67;;;7.53;;
45650;SDS011;31365;48.858;8.530;2022-12-05T03:22:34;7.23;;;6.50;;
45650;SDS011;31365;48.858;8.530;2022-12-05T03:25:10;8.03;;;7.23;;
45650;SDS011;31365;48.858;8.530;2022-12-05T03:27:43;8.37;;;7.47;;
45650;SDS011;31365;48.858;8.530;2022-12-05T03:30:19;9.83;;;8.30;;
45650;SDS011;31365;48.858;8.530;2022-12-05T03:32:54;8.90;;;7.43;;
45650;SDS011;31365;48.858;8.530;2022-12-05T03:35:34;7.60;;;6.57;;
45650;SDS011;31365;48.858;8.530;2022-12-05T03:38:10;9.40;;;7.20;;
45650;SDS011;31365;48.858;8.530;2022-12-05T03:40:46;7.83;;;6.87;;
45650;SDS011;31365;48.858;8.530;2022-12-05T03:43:20;7.30;;;6.20;;
45650;SDS011;31365;48.858;8.530;2022-12-05T03:46:02;7.33;;;6.50;;
45650;SDS011;31365;48.858;8.530;2022-12-05T03:48:41;7.23;;;6.53;;
45650;SDS011;31365;48.858;8.530;2022-12-05T03:51:22;7.60;;;6.80;;
45650;SDS011;31365;48.858;8.530;2022-12-05T03:54:01;8.40;;;7.23;;
45650;SDS011;31365;48.858;8.530;2022-12-05T03:56:38;7.67;;;6.87;;
45650;SDS011;31365;48.858;8.530;2022-12-05T03:59:15;8.80;;;7.03;;
45650;SDS011;31365;48.858;8.530;2022-12-05T04:01:55;8.13;;;7.00;;
45650;SDS011;31365;48.858;8.530;2022-12-05T04:04:31;8.30;;;7.20;;
45650;SDS011;31365;48.858;8.530;2022-12-05T04:07:04;8.07;;;6.70;;
45650;SDS011;31365;48.858;8.530;2022-12-05T04:09:36;8.80;;;7.13;;
45650;SDS011;31365;48.858;8.530;2022-12-05T04:12:13;8.77;;;7.33;;
45650;SDS011;31365;48.858;8.530;2022-12-05T04:14:49;8.57;;;7.23;;
45650;SDS011;31365;48.858;8.530;2022-12-05T04:17:25;8.73;;;7.83;;
45650;SDS011;31365;48.858;8.530;2022-12-05T04:20:02;8.40;;;7.00;;
45650;SDS011;31365;48.858;8.530;2022-12-05T04:22:56;9.10;;;7.57;;
45650;SDS011;31365;48.858;8.530;2022-12-05T04:25:27;8.73;;;6.93;;
45650;SDS011;31365;48.858;8.530;2022-12-05T04:28:10;8.23;;;7.43;;
45650;SDS011;31365;48.858;8.530;2022-12-05T04:30:56;7.73;;;6.73;;
45650;SDS011;31365;48.858;8.530;2022-12-05T04:33:34;8.83;;;7.80;;
45650;SDS011;31365;48.858;8.530;2022-12-05T04:36:12;8.50;;;7.23;;
45650;SDS011;31365;48.858;8.530;2022-12-05T04:38:47;8.57;;;7.60;;
45650;SDS011;31365;48.858;8.530;2022-12-05T04:41:21;9.20;;;7.60;;
45650;SDS011;31365;48.858;8.530;2022-12-05T04:43:56;7.83;;;7.03;;
45650;SDS011;31365;48.858;8.530;2022-12-05T04:46:28;9.67;;;7.73;;
45650;SDS011;31365;48.858;8.530;2022-12-05T04:48:57;8.03;;;7.23;;
45650;SDS011;31365;48.858;8.530;2022-12-05T04:51:32;8.97;;;7.50;;
45650;SDS011;31365;48.858;8.530;2022-12-05T04:54:07;8.47;;;7.57;;
45650;SDS011;31365;48.858;8.530;2022-12-05T04:56:44;7.90;;;7.00;;
45650;SDS011;31365;48.858;8.530;2022-12-05T04:59:22;8.50;;;6.83;;
45650;SDS011;31365;48.858;8.530;2022-12-05T05:01:53;8.37;;;7.23;;
45650;SDS011;31365;48.858;8.530;2022-12-05T05:04:30;8.13;;;7.33;;
45650;SDS011;31365;48.858;8.530;2022-12-05T05:07:05;8.43;;;7.00;;
45650;SDS011;31365;48.858;8.530;2022-12-05T05:09:36;8.57;;;7.27;;
45650;SDS011;31365;48.858;8.530;2022-12-05T05:12:06;10.37;;;7.90;;
45650;SDS011;31365;48.858;8.530;2022-12-05T05:14:44;8.43;;;7.57;;
45650;SDS011;31365;48.858;8.530;2022-12-05T05:17:12;7.80;;;7.00;;
45650;SDS011;31365;48.858;8.530;2022-12-05T05:19:41;8.70;;;7.10;;
45650;SDS011;31365;48.858;8.530;2022-12-05T05:22:11;9.23;;;7.53;;
45650;SDS011;31365;48.858;8.530;2022-12-05T05:24:40;8.57;;;7.13;;
45650;SDS011;31365;48.858;8.530;2022-12-05T05:27:08;8.77;;;7.17;;
45650;SDS011;31365;48.858;8.530;2022-12-05T05:29:36;8.73;;;6.80;;
45650;SDS011;31365;48.858;8.530;2022-12-05T05:32:05;8.87;;;7.97;;
45650;SDS011;31365;48.858;8.530;2022-12-05T05:34:33;11.97;;;8.43;;
45650;SDS011;31365;48.858;8.530;2022-12-05T05:37:02;10.33;;;8.93;;
45650;SDS011;31365;48.858;8.530;2022-12-05T05:39:32;9.33;;;7.93;;
45650;SDS011;31365;48.858;8.530;2022-12-05T05:42:01;11.07;;;8.40;;
45650;SDS011;31365;48.858;8.530;2022-12-05T05:44:30;9.53;;;8.20;;
45650;SDS011;31365;48.858;8.530;2022-12-05T05:46:58;9.83;;;8.40;;
45650;SDS011;31365;48.858;8.530;2022-12-05T05:49:27;10.50;;;8.30;;
45650;SDS011;31365;48.858;8.530;2022-12-05T05:51:55;10.03;;;8.30;;
45650;SDS011;31365;48.858;8.530;2022-12-05T05:54:25;11.63;;;8.33;;
45650;SDS011;31365;48.858;8.530;2022-12-05T05:56:55;9.27;;;7.73;;
45650;SDS011;31365;48.858;8.530;2022-12-05T05:59:24;12.93;;;10.10;;
45650;SDS011;31365;48.858;8.530;2022-12-05T06:01:52;10.77;;;8.53;;
45650;SDS011;31365;48.858;8.530;2022-12-05T06:04:21;10.87;;;8.93;;
45650;SDS011;31365;48.858;8.530;2022-12-05T06:06:49;12.83;;;10.23;;
45650;SDS011;31365;48.858;8.530;2022-12-05T06:09:18;12.87;;;10.20;;
45650;SDS011;31365;48.858;8.530;2022-12-05T06:11:46;15.07;;;11.90;;
45650;SDS011;31365;48.858;8.530;2022-12-05T06:14:15;10.97;;;9.70;;
45650;SDS011;31365;48.858;8.530;2022-12-05T06:16:44;9.27;;;8.00;;
45650;SDS011;31365;48.858;8.530;2022-12-05T06:19:12;10.30;;;8.87;;
45650;SDS011;31365;48.858;8.530;2022-12-05T06:21:40;9.27;;;8.30;;
45650;SDS011;31365;48.858;8.530;2022-12-05T06:24:09;12.53;;;10.33;;
45650;SDS011;31365;48.858;8.530;2022-12-05T06:26:38;13.53;;;11.93;;
45650;SDS011;31365;48.858;8.530;2022-12-05T06:29:06;11.20;;;9.43;;
45650;SDS011;31365;48.858;8.530;2022-12-05T06:31:36;11.40;;;8.40;;
45650;SDS011;31365;48.858;8.530;2022-12-05T06:34:04;9.00;;;7.47;;
45650;SDS011;31365;48.858;8.530;2022-12-05T06:36:32;9.43;;;8.43;;
45650;SDS011;31365;48.858;8.530;2022-12-05T06:39:00;10.00;;;8.17;;
45650;SDS011;31365;48.858;8.530;2022-12-05T06:41:30;10.07;;;8.00;;
45650;SDS011;31365;48.858;8.530;2022-12-05T06:43:58;10.87;;;9.73;;
45650;SDS011;31365;48.858;8.530;2022-12-05T06:46:28;13.87;;;12.37;;
45650;SDS011;31365;48.858;8.530;2022-12-05T06:48:58;9.77;;;8.70;;
45650;SDS011;31365;48.858;8.530;2022-12-05T06:51:27;12.17;;;9.30;;
45650;SDS011;31365;48.858;8.530;2022-12-05T06:53:56;14.07;;;10.43;;
45650;SDS011;31365;48.858;8.530;2022-12-05T06:56:24;11.07;;;9.47;;
45650;SDS011;31365;48.858;8.530;2022-12-05T06:58:54;13.57;;;10.60;;
45650;SDS011;31365;48.858;8.530;2022-12-05T07:01:23;12.37;;;10.93;;
45650;SDS011;31365;48.858;8.530;2022-12-05T07:04:11;15.47;;;11.47;;
45650;SDS011;31365;48.858;8.530;2022-12-05T07:06:42;12.00;;;10.63;;
45650;SDS011;31365;48.858;8.530;2022-12-05T07:09:16;14.70;;;11.20;;
45650;SDS011;31365;48.858;8.530;2022-12-05T07:11:47;12.33;;;10.90;;
45650;SDS011;31365;48.858;8.530;2022-12-05T07:14:16;11.87;;;10.30;;
45650;SDS011;31365;48.858;8.530;2022-12-05T07:17:05;13.10;;;9.97;;
45650;SDS011;31365;48.858;8.530;2022-12-05T07:19:35;14.17;;;11.83;;
45650;SDS011;31365;48.858;8.530;2022-12-05T07:22:04;14.47;;;11.83;;
45650;SDS011;31365;48.858;8.530;2022-12-05T07:24:41;11.47;;;10.20;;
45650;SDS011;31365;48.858;8.530;2022-12-05T07:27:09;10.97;;;7.90;;
45650;SDS011;31365;48.858;8.530;2022-12-05T07:29:38;8.00;;;7.20;;
45650;SDS011;31365;48.858;8.530;2022-12-05T07:32:06;8.20;;;7.40;;
45650;SDS011;31365;48.858;8.530;2022-12-05T07:34:37;7.97;;;7.17;;
45650;SDS011;31365;48.858;8.530;2022-12-05T07:37:05;11.43;;;9.50;;
45650;SDS011;31365;48.858;8.530;2022-12-05T07:39:34;11.40;;;8.90;;
45650;SDS011;31365;48.858;8.530;2022-12-05T07:42:02;9.77;;;8.33;;
45650;SDS011;31365;48.858;8.530;2022-12-05T07:44:31;10.37;;;9.23;;
45650;SDS011;31365;48.858;8.530;2022-12-05T07:47:00;12.17;;;10.47;;
45650;SDS011;31365;48.858;8.530;2022-12-05T07:49:28;12.83;;;11.03;;
45650;SDS011;31365;48.858;8.530;2022-12-05T07:52:00;11.63;;;10.33;;
45650;SDS011;31365;48.858;8.530;2022-12-05T07:54:28;11.40;;;10.27;;
45650;SDS011;31365;48.858;8.530;2022-12-05T07:56:56;10.60;;;8.80;;
45650;SDS011;31365;48.858;8.530;2022-12-05T07:59:25;11.37;;;8.33;;
45650;SDS011;31365;48.858;8.530;2022-12-05T08:01:53;10.13;;;8.27;;
45650;SDS011;31365;48.858;8.530;2022-12-05T08:04:21;10.17;;;9.03;;
45650;SDS011;31365;48.858;8.530;2022-12-05T08:06:50;10.27;;;9.17;;
45650;SDS011;31365;48.858;8.530;2022-12-05T08:09:19;8.67;;;7.73;;
45650;SDS011;31365;48.858;8.530;2022-12-05T08:11:48;9.10;;;8.20;;
45650;SDS011;31365;48.858;8.530;2022-12-05T08:14:18;9.17;;;8.03;;
45650;SDS011;31365;48.858;8.530;2022-12-05T08:16:47;18.07;;;15.60;;
45650;SDS011;31365;48.858;8.530;2022-12-05T08:19:15;14.70;;;13.17;;
45650;SDS011;31365;48.858;8.530;2022-12-05T08:21:45;11.37;;;10.17;;
45650;SDS011;31365;48.858;8.530;2022-12-05T08:24:14;11.43;;;9.43;;
45650;SDS011;31365;48.858;8.530;2022-12-05T08:26:43;10.00;;;9.00;;
45650;SDS011;31365;48.858;8.530;2022-12-05T08:29:13;8.67;;;7.77;;
45650;SDS011;31365;48.858;8.530;2022-12-05T08:31:43;6.90;;;6.30;;
45650;SDS011;31365;48.858;8.530;2022-12-05T08:34:15;7.17;;;6.43;;
45650;SDS011;31365;48.858;8.530;2022-12-05T08:36:47;10.10;;;6.57;;
45650;SDS011;31365;48.858;8.530;2022-12-05T08:39:17;7.60;;;6.03;;
45650;SDS011;31365;48.858;8.530;2022-12-05T08:41:48;9.10;;;7.07;;
45650;SDS011;31365;48.858;8.530;2022-12-05T08:44:16;9.13;;;7.90;;
45650;SDS011;31365;48.858;8.530;2022-12-05T08:46:45;10.73;;;8.97;;
45650;SDS011;31365;48.858;8.530;2022-12-05T08:49:15;7.57;;;6.80;;
45650;SDS011;31365;48.858;8.530;2022-12-05T08:51:44;6.90;;;6.30;;
45650;SDS011;31365;48.858;8.530;2022-12-05T08:54:13;23.43;;;21.20;;
45650;SDS011;31365;48.858;8.530;2022-12-05T08:56:42;11.90;;;10.70;;
45650;SDS011;31365;48.858;8.530;2022-12-05T08:59:12;7.33;;;6.63;;
45650;SDS011;31365;48.858;8.530;2022-12-05T09:01:40;6.77;;;6.03;;
45650;SDS011;31365;48.858;8.530;2022-12-05T09:04:09;7.33;;;6.30;;
45650;SDS011;31365;48.858;8.530;2022-12-05T09:06:38;7.00;;;6.30;;
45650;SDS011;31365;48.858;8.530;2022-12-05T09:09:09;7.30;;;6.43;;
45650;SDS011;31365;48.858;8.530;2022-12-05T09:11:39;8.80;;;7.23;;
45650;SDS011;31365;48.858;8.530;2022-12-05T09:14:15;10.90;;;9.60;;
45650;SDS011;31365;48.858;8.530;2022-12-05T09:16:45;6.87;;;6.23;;
45650;SDS011;31365;48.858;8.530;2022-12-05T09:19:15;6.60;;;5.90;;
45650;SDS011;31365;48.858;8.530;2022-12-05T09:21:52;6.00;;;5.40;;
45650;SDS011;31365;48.858;8.530;2022-12-05T09:24:22;7.40;;;6.47;;
45650;SDS011;31365;48.858;8.530;2022-12-05T09:26:51;7.60;;;6.87;;
45650;SDS011;31365;48.858;8.530;2022-12-05T09:29:21;7.30;;;6.40;;
45650;SDS011;31365;48.858;8.530;2022-12-05T09:31:57;8.13;;;6.30;;
45650;SDS011;31365;48.858;8.530;2022-12-05T09:34:25;6.00;;;5.33;;
45650;SDS011;31365;48.858;8.530;2022-12-05T09:36:54;6.30;;;5.67;;
45650;SDS011;31365;48.858;8.530;2022-12-05T09:39:43;7.37;;;6.63;;
45650;SDS011;31365;48.858;8.530;2022-12-05T09:45:13;7.23;;;6.53;;
45650;SDS011;31365;48.858;8.530;2022-12-05T09:47:56;6.03;;;5.43;;
45650;SDS011;31365;48.858;8.530;2022-12-05T09:50:32;5.10;;;4.60;;
45650;SDS011;31365;48.858;8.530;2022-12-05T09:53:12;10.93;;;5.80;;
45650;SDS011;31365;48.858;8.530;2022-12-05T09:55:54;6.90;;;6.20;;
45650;SDS011;31365;48.858;8.530;2022-12-05T09:58:37;6.23;;;5.63;;
45650;SDS011;31365;48.858;8.530;2022-12-05T10:01:20;5.87;;;5.27;;
45650;SDS011;31365;48.858;8.530;2022-12-05T10:04:04;6.40;;;5.80;;
45650;SDS011;31365;48.858;8.530;2022-12-05T10:06:55;6.83;;;6.13;;
45650;SDS011;31365;48.858;8.530;2022-12-05T10:09:39;8.73;;;6.10;;
45650;SDS011;31365;48.858;8.530;2022-12-05T10:12:49;5.47;;;4.97;;
45650;SDS011;31365;48.858;8.530;2022-12-05T10:15:34;5.77;;;5.00;;
45650;SDS011;31365;48.858;8.530;2022-12-05T10:18:14;6.43;;;5.40;;
45650;SDS011;31365;48.858;8.530;2022-12-05T10:20:56;8.17;;;6.03;;
45650;SDS011;31365;48.858;8.530;2022-12-05T10:23:30;7.30;;;6.30;;
45650;SDS011;31365;48.858;8.530;2022-12-05T10:26:27;9.60;;;7.13;;
45650;SDS011;31365;48.858;8.530;2022-12-05T10:29:02;14.57;;;8.87;;
45650;SDS011;31365;48.858;8.530;2022-12-05T10:31:48;13.53;;;8.80;;
45650;SDS011;31365;48.858;8.530;2022-12-05T10:34:25;8.03;;;7.13;;
45650;SDS011;31365;48.858;8.530;2022-12-05T10:37:01;7.17;;;6.47;;
45650;SDS011;31365;48.858;8.530;2022-12-05T10:39:39;6.77;;;5.50;;
45650;SDS011;31365;48.858;8.530;2022-12-05T10:42:10;5.67;;;5.17;;
45650;SDS011;31365;48.858;8.530;2022-12-05T10:44:43;5.60;;;5.03;;
45650;SDS011;31365;48.858;8.530;2022-12-05T10:47:11;6.00;;;5.40;;
45650;SDS011;31365;48.858;8.530;2022-12-05T10:49:42;6.33;;;5.03;;
45650;SDS011;31365;48.858;8.530;2022-12-05T10:52:12;5.23;;;4.73;;
45650;SDS011;31365;48.858;8.530;2022-12-05T10:54:43;6.40;;;4.83;;
45650;SDS011;31365;48.858;8.530;2022-12-05T10:57:19;6.30;;;5.47;;
45650;SDS011;31365;48.858;8.530;2022-12-05T10:59:51;5.50;;;5.00;;
45650;SDS011;31365;48.858;8.530;2022-12-05T11:02:24;7.33;;;5.60;;
45650;SDS011;31365;48.858;8.530;2022-12-05T11:04:57;6.70;;;6.07;;
45650;SDS011;31365;48.858;8.530;2022-12-05T11:07:28;6.30;;;5.70;;
45650;SDS011;31365;48.858;8.530;2022-12-05T11:09:59;8.00;;;7.20;;
45650;SDS011;31365;48.858;8.530;2022-12-05T11:12:51;6.73;;;6.13;;
45650;SDS011;31365;48.858;8.530;2022-12-05T11:15:24;8.60;;;5.97;;
45650;SDS011;31365;48.858;8.530;2022-12-05T11:17:55;5.60;;;5.10;;
45650;SDS011;31365;48.858;8.530;2022-12-05T11:20:41;6.03;;;5.53;;
45650;SDS011;31365;48.858;8.530;2022-12-05T11:23:19;6.20;;;5.60;;
45650;SDS011;31365;48.858;8.530;2022-12-05T11:25:52;5.07;;;4.57;;
45650;SDS011;31365;48.858;8.530;2022-12-05T11:28:33;6.07;;;5.10;;
45650;SDS011;31365;48.858;8.530;2022-12-05T11:31:04;7.30;;;5.80;;
45650;SDS011;31365;48.858;8.530;2022-12-05T11:33:59;6.47;;;5.87;;
45650;SDS011;31365;48.858;8.530;2022-12-05T11:36:38;5.10;;;4.57;;
45650;SDS011;31365;48.858;8.530;2022-12-05T11:39:13;6.47;;;5.30;;
45650;SDS011;31365;48.858;8.530;2022-12-05T11:41:45;6.53;;;5.93;;
45650;SDS011;31365;48.858;8.530;2022-12-05T11:44:37;5.60;;;5.10;;
45650;SDS011;31365;48.858;8.530;2022-12-05T11:47:34;5.87;;;5.30;;
45650;SDS011;31365;48.858;8.530;2022-12-05T11:50:24;6.77;;;5.80;;
45650;SDS011;31365;48.858;8.530;2022-12-05T11:53:06;6.17;;;5.10;;
45650;SDS011;31365;48.858;8.530;2022-12-05T11:55:58;6.80;;;6.20;;
45650;SDS011;31365;48.858;8.530;2022-12-05T11:58:45;6.83;;;6.07;;
45650;SDS011;31365;48.858;8.530;2022-12-05T12:01:38;10.50;;;6.47;;
45650;SDS011;31365;48.858;8.530;2022-12-05T12:07:22;13.07;;;7.50;;
45650;SDS011;31365;48.858;8.530;2022-12-05T12:10:09;6.73;;;6.10;;
45650;SDS011;31365;48.858;8.530;2022-12-05T12:12:51;8.53;;;5.80;;
45650;SDS011;31365;48.858;8.530;2022-12-05T12:15:38;6.50;;;5.80;;
45650;SDS011;31365;48.858;8.530;2022-12-05T12:18:23;5.87;;;5.27;;
45650;SDS011;31365;48.858;8.530;2022-12-05T12:21:15;6.27;;;5.60;;
45650;SDS011;31365;48.858;8.530;2022-12-05T12:33:24;3.80;;;3.50;;
45650;SDS011;31365;48.858;8.530;2022-12-05T12:36:04;4.80;;;3.83;;
45650;SDS011;31365;48.858;8.530;2022-12-05T12:38:51;4.43;;;4.03;;
45650;SDS011;31365;48.858;8.530;2022-12-05T12:41:39;3.83;;;3.40;;
45650;SDS011;31365;48.858;8.530;2022-12-05T12:44:30;4.30;;;3.90;;
45650;SDS011;31365;48.858;8.530;2022-12-05T12:47:35;5.13;;;4.63;;
45650;SDS011;31365;48.858;8.530;2022-12-05T12:50:18;5.87;;;4.37;;
45650;SDS011;31365;48.858;8.530;2022-12-05T12:52:57;4.57;;;4.17;;
45650;SDS011;31365;48.858;8.530;2022-12-05T12:55:45;10.00;;;8.10;;
45650;SDS011;31365;48.858;8.530;2022-12-05T12:58:33;9.83;;;8.33;;
45650;SDS011;31365;48.858;8.530;2022-12-05T13:01:17;6.90;;;6.20;;
45650;SDS011;31365;48.858;8.530;2022-12-05T13:03:52;10.40;;;9.30;;
45650;SDS011;31365;48.858;8.530;2022-12-05T13:06:33;9.80;;;7.97;;
45650;SDS011;31365;48.858;8.530;2022-12-05T13:09:11;6.30;;;5.40;;
45650;SDS011;31365;48.858;8.530;2022-12-05T13:11:49;7.43;;;5.47;;
45650;SDS011;31365;48.858;8.530;2022-12-05T13:14:22;5.73;;;5.13;;
45650;SDS011;31365;48.858;8.530;2022-12-05T13:16:53;7.47;;;6.10;;
45650;SDS011;31365;48.858;8.530;2022-12-05T13:19:26;7.07;;;6.23;;
45650;SDS011;31365;48.858;8.530;2022-12-05T13:22:04;11.33;;;7.23;;
45650;SDS011;31365;48.858;8.530;2022-12-05T13:24:34;6.30;;;5.70;;
45650;SDS011;31365;48.858;8.530;2022-12-05T13:27:04;5.03;;;4.53;;
45650;SDS011;31365;48.858;8.530;2022-12-05T13:29:35;5.90;;;5.30;;
45650;SDS011;31365;48.858;8.530;2022-12-05T13:32:22;5.83;;;5.23;;
45650;SDS011;31365;48.858;8.530;2022-12-05T13:34:56;4.77;;;4.37;;
45650;SDS011;31365;48.858;8.530;2022-12-05T13:37:29;4.30;;;3.90;;
45650;SDS011;31365;48.858;8.530;2022-12-05T13:40:29;5.20;;;4.70;;
45650;SDS011;31365;48.858;8.530;2022-12-05T13:43:18;4.60;;;4.20;;
45650;SDS011;31365;48.858;8.530;2022-12-05T13:45:54;4.67;;;4.17;;
45650;SDS011;31365;48.858;8.530;2022-12-05T13:48:32;4.77;;;4.37;;
45650;SDS011;31365;48.858;8.530;2022-12-05T13:51:07;4.17;;;3.77;;
45650;SDS011;31365;48.858;8.530;2022-12-05T13:53:49;4.27;;;3.87;;
45650;SDS011;31365;48.858;8.530;2022-12-05T13:56:44;4.00;;;3.70;;
45650;SDS011;31365;48.858;8.530;2022-12-05T14:05:36;4.50;;;4.07;;
45650;SDS011;31365;48.858;8.530;2022-12-05T14:15:22;4.73;;;4.33;;
45650;SDS011;31365;48.858;8.530;2022-12-05T14:18:04;6.17;;;5.33;;
45650;SDS011;31365;48.858;8.530;2022-12-05T14:20:48;4.73;;;4.27;;
45650;SDS011;31365;48.858;8.530;2022-12-05T14:23:37;6.90;;;6.20;;
45650;SDS011;31365;48.858;8.530;2022-12-05T14:29:35;7.57;;;6.60;;
45650;SDS011;31365;48.858;8.530;2022-12-05T14:32:17;7.20;;;6.47;;
45650;SDS011;31365;48.858;8.530;2022-12-05T14:34:54;6.40;;;5.73;;
45650;SDS011;31365;48.858;8.530;2022-12-05T14:37:29;6.40;;;5.80;;
45650;SDS011;31365;48.858;8.530;2022-12-05T14:40:02;6.50;;;5.90;;
45650;SDS011;31365;48.858;8.530;2022-12-05T14:42:50;5.03;;;4.37;;
45650;SDS011;31365;48.858;8.530;2022-12-05T14:45:25;6.37;;;4.60;;
45650;SDS011;31365;48.858;8.530;2022-12-05T14:47:58;6.03;;;5.40;;
45650;SDS011;31365;48.858;8.530;2022-12-05T14:50:35;4.00;;;3.67;;
45650;SDS011;31365;48.858;8.530;2022-12-05T14:53:14;3.80;;;3.50;;
45650;SDS011;31365;48.858;8.530;2022-12-05T14:55:56;4.57;;;4.13;;
45650;SDS011;31365;48.858;8.530;2022-12-05T14:58:33;6.00;;;3.57;;
45650;SDS011;31365;48.858;8.530;2022-12-05T15:01:12;3.87;;;3.23;;
45650;SDS011;31365;48.858;8.530;2022-12-05T15:06:41;4.40;;;4.00;;
45650;SDS011;31365;48.858;8.530;2022-12-05T15:09:27;3.40;;;3.10;;
45650;SDS011;31365;48.858;8.530;2022-12-05T15:12:10;3.73;;;3.43;;
45650;SDS011;31365;48.858;8.530;2022-12-05T15:14:45;4.20;;;3.80;;
45650;SDS011;31365;48.858;8.530;2022-12-05T15:17:23;5.00;;;3.30;;
45650;SDS011;31365;48.858;8.530;2022-12-05T15:19:59;4.10;;;3.70;;
45650;SDS011;31365;48.858;8.530;2022-12-05T15:22:35;4.17;;;3.77;;
45650;SDS011;31365;48.858;8.530;2022-12-05T15:25:25;5.10;;;4.27;;
45650;SDS011;31365;48.858;8.530;2022-12-05T15:28:02;4.90;;;4.20;;
45650;SDS011;31365;48.858;8.530;2022-12-05T15:30:35;8.47;;;6.60;;
45650;SDS011;31365;48.858;8.530;2022-12-05T15:33:07;10.87;;;8.87;;
45650;SDS011;31365;48.858;8.530;2022-12-05T15:35:40;10.37;;;9.20;;
45650;SDS011;31365;48.858;8.530;2022-12-05T15:38:18;8.47;;;7.67;;
45650;SDS011;31365;48.858;8.530;2022-12-05T15:40:53;9.63;;;8.67;;
45650;SDS011;31365;48.858;8.530;2022-12-05T15:43:26;6.43;;;5.83;;
45650;SDS011;31365;48.858;8.530;2022-12-05T15:46:06;6.53;;;5.83;;
45650;SDS011;31365;48.858;8.530;2022-12-05T15:48:49;7.00;;;6.27;;
45650;SDS011;31365;48.858;8.530;2022-12-05T15:51:18;6.43;;;5.20;;
45650;SDS011;31365;48.858;8.530;2022-12-05T15:53:51;7.17;;;6.40;;
45650;SDS011;31365;48.858;8.530;2022-12-05T15:56:27;6.53;;;5.80;;
45650;SDS011;31365;48.858;8.530;2022-12-05T15:59:04;6.83;;;5.87;;
45650;SDS011;31365;48.858;8.530;2022-12-05T16:01:44;8.07;;;6.03;;
45650;SDS011;31365;48.858;8.530;2022-12-05T16:04:18;7.50;;;6.70;;
45650;SDS011;31365;48.858;8.530;2022-12-05T16:06:55;16.47;;;13.23;;
45650;SDS011;31365;48.858;8.530;2022-12-05T16:09:32;14.63;;;12.17;;
45650;SDS011;31365;48.858;8.530;2022-12-05T16:12:13;11.97;;;10.17;;